sensor_id;sensor_type;location;lat;lon;timestamp;pressure;altitude;pressure_sealevel;temperature;humidity
69411;BME280;56604;48.652;9.194;2023-06-22T00:01:47;96291.16;;;20.59;83.92
69411;BME280;56604;48.652;9.194;2023-06-22T00:04:12;96298.06;;;20.60;84.28
69411;BME280;56604;48.652;9.194;2023-06-22T00:06:37;96291.31;;;20.54;84.45
69411;BME280;56604;48.652;9.194;2023-06-22T00:09:02;96294.13;;;20.49;84.61
69411;BME280;56604;48.652;9.194;2023-06-22T00:11:28;96295.03;;;20.44;84.72
69411;BME280;56604;48.652;9.194;2023-06-22T00:13:53;96287.66;;;20.41;85.01
69411;BME280;56604;48.652;9.194;2023-06-22T00:16:19;96283.72;;;20.39;85.00
69411;BME280;56604;48.652;9.194;2023-06-22T00:18:44;96296.31;;;20.47;84.69
69411;BME280;56604;48.652;9.194;2023-06-22T00:21:12;96298.16;;;20.38;84.98
69411;BME280;56604;48.652;9.194;2023-06-22T00:23:38;96303.03;;;20.44;84.93
69411;BME280;56604;48.652;9.194;2023-06-22T00:26:03;96303.50;;;20.38;84.82
69411;BME280;56604;48.652;9.194;2023-06-22T00:28:28;96306.50;;;20.45;84.80
69411;BME280;56604;48.652;9.194;2023-06-22T00:30:54;96307.34;;;20.54;84.43
69411;BME280;56604;48.652;9.194;2023-06-22T00:33:19;96305.88;;;20.48;84.22
69411;BME280;56604;48.652;9.194;2023-06-22T00:35:44;96296.31;;;20.47;84.71
69411;BME280;56604;48.652;9.194;2023-06-22T00:38:10;96285.63;;;20.47;84.24
69411;BME280;56604;48.652;9.194;2023-06-22T00:40:36;96276.81;;;20.47;84.85
69411;BME280;56604;48.652;9.194;2023-06-22T00:43:01;96270.84;;;20.41;84.63
69411;BME280;56604;48.652;9.194;2023-06-22T00:45:27;96283.09;;;20.42;84.83
69411;BME280;56604;48.652;9.194;2023-06-22T00:47:55;96285.91;;;20.45;84.67
69411;BME280;56604;48.652;9.194;2023-06-22T00:50:22;96285.47;;;20.43;84.52
69411;BME280;56604;48.652;9.194;2023-06-22T00:52:56;96295.34;;;20.43;84.57
69411;BME280;56604;48.652;9.194;2023-06-22T00:55:22;96290.47;;;20.36;84.82
69411;BME280;56604;48.652;9.194;2023-06-22T00:57:48;96296.94;;;20.44;84.66
69411;BME280;56604;48.652;9.194;2023-06-22T01:00:17;96297.53;;;20.41;84.63
69411;BME280;56604;48.652;9.194;2023-06-22T01:02:44;96314.34;;;20.33;84.77
69411;BME280;56604;48.652;9.194;2023-06-22T01:05:17;96309.94;;;20.37;84.71
69411;BME280;56604;48.652;9.194;2023-06-22T01:10:43;96306.47;;;20.36;84.81
69411;BME280;56604;48.652;9.194;2023-06-22T01:13:21;96322.00;;;20.26;84.87
69411;BME280;56604;48.652;9.194;2023-06-22T01:16:00;96331.09;;;20.25;85.30
69411;BME280;56604;48.652;9.194;2023-06-22T01:18:28;96324.03;;;20.29;85.25
69411;BME280;56604;48.652;9.194;2023-06-22T01:20:56;96300.00;;;20.29;85.03
69411;BME280;56604;48.652;9.194;2023-06-22T01:28:53;96322.91;;;20.12;86.12
69411;BME280;56604;48.652;9.194;2023-06-22T01:31:22;96299.34;;;20.14;85.71
69411;BME280;56604;48.652;9.194;2023-06-22T01:33:54;96292.44;;;20.13;85.68
69411;BME280;56604;48.652;9.194;2023-06-22T01:36:22;96309.06;;;20.10;85.91
69411;BME280;56604;48.652;9.194;2023-06-22T01:38:49;96306.88;;;20.12;85.92
69411;BME280;56604;48.652;9.194;2023-06-22T01:41:16;96302.50;;;20.16;85.68
69411;BME280;56604;48.652;9.194;2023-06-22T01:43:42;96282.69;;;20.17;85.63
69411;BME280;56604;48.652;9.194;2023-06-22T01:46:08;96284.44;;;20.13;85.78
69411;BME280;56604;48.652;9.194;2023-06-22T01:48:33;96295.88;;;20.14;85.78
69411;BME280;56604;48.652;9.194;2023-06-22T01:50:59;96307.00;;;20.07;85.95
69411;BME280;56604;48.652;9.194;2023-06-22T01:53:25;96306.53;;;20.05;86.05
69411;BME280;56604;48.652;9.194;2023-06-22T01:55:50;96304.06;;;20.17;85.81
69411;BME280;56604;48.652;9.194;2023-06-22T01:58:16;96294.63;;;20.20;84.79
69411;BME280;56604;48.652;9.194;2023-06-22T02:00:51;96294.66;;;20.29;84.62
69411;BME280;56604;48.652;9.194;2023-06-22T02:03:21;96298.28;;;20.24;84.29
69411;BME280;56604;48.652;9.194;2023-06-22T02:05:55;96297.19;;;20.34;83.90
69411;BME280;56604;48.652;9.194;2023-06-22T02:08:24;96301.28;;;20.40;83.22
69411;BME280;56604;48.652;9.194;2023-06-22T02:10:51;96301.94;;;20.45;82.59
69411;BME280;56604;48.652;9.194;2023-06-22T02:13:17;96307.78;;;20.48;82.36
69411;BME280;56604;48.652;9.194;2023-06-22T02:15:43;96303.22;;;20.48;82.31
69411;BME280;56604;48.652;9.194;2023-06-22T02:18:10;96301.78;;;20.42;82.89
69411;BME280;56604;48.652;9.194;2023-06-22T02:20:39;96302.53;;;20.34;83.17
69411;BME280;56604;48.652;9.194;2023-06-22T02:23:05;96308.97;;;20.24;83.51
69411;BME280;56604;48.652;9.194;2023-06-22T02:25:32;96305.19;;;20.25;83.65
69411;BME280;56604;48.652;9.194;2023-06-22T02:27:57;96295.28;;;20.26;83.60
69411;BME280;56604;48.652;9.194;2023-06-22T02:30:22;96300.75;;;20.20;83.97
69411;BME280;56604;48.652;9.194;2023-06-22T02:32:48;96295.09;;;20.13;84.25
69411;BME280;56604;48.652;9.194;2023-06-22T02:35:13;96291.94;;;20.11;84.75
69411;BME280;56604;48.652;9.194;2023-06-22T02:37:39;96303.06;;;20.05;84.84
69411;BME280;56604;48.652;9.194;2023-06-22T02:40:10;96304.97;;;20.04;84.82
69411;BME280;56604;48.652;9.194;2023-06-22T02:42:36;96304.00;;;20.00;85.06
69411;BME280;56604;48.652;9.194;2023-06-22T02:45:02;96285.44;;;19.95;85.44
69411;BME280;56604;48.652;9.194;2023-06-22T02:47:27;96285.88;;;19.88;85.58
69411;BME280;56604;48.652;9.194;2023-06-22T02:49:52;96287.13;;;19.82;86.10
69411;BME280;56604;48.652;9.194;2023-06-22T02:52:18;96286.81;;;19.84;85.82
69411;BME280;56604;48.652;9.194;2023-06-22T02:54:43;96282.56;;;19.83;85.71
69411;BME280;56604;48.652;9.194;2023-06-22T02:57:11;96276.28;;;19.79;86.00
69411;BME280;56604;48.652;9.194;2023-06-22T02:59:39;96270.75;;;19.75;85.97
69411;BME280;56604;48.652;9.194;2023-06-22T03:02:06;96276.25;;;19.70;86.42
69411;BME280;56604;48.652;9.194;2023-06-22T03:04:31;96279.31;;;19.63;87.12
69411;BME280;56604;48.652;9.194;2023-06-22T03:06:56;96260.16;;;19.61;86.83
69411;BME280;56604;48.652;9.194;2023-06-22T03:09:26;96264.31;;;19.67;86.47
69411;BME280;56604;48.652;9.194;2023-06-22T03:11:53;96261.16;;;19.65;86.39
69411;BME280;56604;48.652;9.194;2023-06-22T03:14:18;96250.47;;;19.65;86.52
69411;BME280;56604;48.652;9.194;2023-06-22T03:16:44;96260.03;;;19.66;86.72
69411;BME280;56604;48.652;9.194;2023-06-22T03:19:09;96262.72;;;19.66;86.75
69411;BME280;56604;48.652;9.194;2023-06-22T03:21:37;96256.41;;;19.62;86.80
69411;BME280;56604;48.652;9.194;2023-06-22T03:24:04;96258.56;;;19.60;86.90
69411;BME280;56604;48.652;9.194;2023-06-22T03:26:29;96263.28;;;19.63;86.76
69411;BME280;56604;48.652;9.194;2023-06-22T03:28:55;96262.09;;;19.69;86.47
69411;BME280;56604;48.652;9.194;2023-06-22T03:31:20;96259.44;;;19.69;86.43
69411;BME280;56604;48.652;9.194;2023-06-22T03:33:47;96263.06;;;19.73;85.86
69411;BME280;56604;48.652;9.194;2023-06-22T03:36:14;96261.22;;;19.83;85.01
69411;BME280;56604;48.652;9.194;2023-06-22T03:38:41;96259.03;;;19.85;85.23
69411;BME280;56604;48.652;9.194;2023-06-22T03:41:06;96254.66;;;19.89;84.77
69411;BME280;56604;48.652;9.194;2023-06-22T03:43:32;96244.63;;;19.94;84.63
69411;BME280;56604;48.652;9.194;2023-06-22T03:45:57;96242.94;;;19.98;84.60
69411;BME280;56604;48.652;9.194;2023-06-22T03:48:23;96246.25;;;20.04;84.06
69411;BME280;56604;48.652;9.194;2023-06-22T03:50:48;96249.25;;;20.11;83.84
69411;BME280;56604;48.652;9.194;2023-06-22T03:53:13;96251.28;;;20.14;83.61
69411;BME280;56604;48.652;9.194;2023-06-22T03:55:47;96253.19;;;20.22;83.18
69411;BME280;56604;48.652;9.194;2023-06-22T03:58:13;96253.53;;;20.30;83.00
69411;BME280;56604;48.652;9.194;2023-06-22T04:00:38;96259.53;;;20.44;82.32
69411;BME280;56604;48.652;9.194;2023-06-22T04:03:04;96254.38;;;20.56;81.71
69411;BME280;56604;48.652;9.194;2023-06-22T04:05:29;96248.13;;;20.70;80.98
69411;BME280;56604;48.652;9.194;2023-06-22T04:07:55;96256.78;;;20.84;80.58
69411;BME280;56604;48.652;9.194;2023-06-22T04:10:20;96243.88;;;20.86;80.38
69411;BME280;56604;48.652;9.194;2023-06-22T04:12:46;96247.00;;;21.05;79.97
69411;BME280;56604;48.652;9.194;2023-06-22T04:15:12;96244.03;;;21.16;79.10
69411;BME280;56604;48.652;9.194;2023-06-22T04:17:37;96237.25;;;21.27;78.48
69411;BME280;56604;48.652;9.194;2023-06-22T04:20:02;96247.47;;;21.16;78.76
69411;BME280;56604;48.652;9.194;2023-06-22T04:22:29;96239.91;;;21.27;78.09
69411;BME280;56604;48.652;9.194;2023-06-22T04:24:54;96239.91;;;21.36;78.06
69411;BME280;56604;48.652;9.194;2023-06-22T04:27:19;96239.09;;;21.52;77.12
69411;BME280;56604;48.652;9.194;2023-06-22T04:29:45;96235.19;;;21.88;75.91
69411;BME280;56604;48.652;9.194;2023-06-22T04:32:14;96230.91;;;21.96;75.90
69411;BME280;56604;48.652;9.194;2023-06-22T04:34:40;96234.97;;;22.02;74.84
69411;BME280;56604;48.652;9.194;2023-06-22T04:37:05;96226.31;;;22.56;73.56
69411;BME280;56604;48.652;9.194;2023-06-22T04:39:30;96219.31;;;22.42;72.70
69411;BME280;56604;48.652;9.194;2023-06-22T04:41:56;96217.50;;;22.34;73.03
69411;BME280;56604;48.652;9.194;2023-06-22T04:44:25;96216.25;;;22.53;72.86
69411;BME280;56604;48.652;9.194;2023-06-22T04:46:57;96209.47;;;22.55;73.20
69411;BME280;56604;48.652;9.194;2023-06-22T04:49:26;96215.97;;;22.87;70.83
69411;BME280;56604;48.652;9.194;2023-06-22T04:52:04;96214.28;;;23.04;70.28
69411;BME280;56604;48.652;9.194;2023-06-22T04:54:30;96212.19;;;22.88;70.23
69411;BME280;56604;48.652;9.194;2023-06-22T04:57:00;96208.09;;;23.24;69.22
69411;BME280;56604;48.652;9.194;2023-06-22T04:59:27;96204.31;;;23.25;69.39
69411;BME280;56604;48.652;9.194;2023-06-22T05:01:54;96212.66;;;23.57;68.46
69411;BME280;56604;48.652;9.194;2023-06-22T05:04:20;96207.78;;;23.84;66.65
69411;BME280;56604;48.652;9.194;2023-06-22T05:06:45;96207.28;;;23.69;67.11
69411;BME280;56604;48.652;9.194;2023-06-22T05:09:10;96204.88;;;23.89;66.14
69411;BME280;56604;48.652;9.194;2023-06-22T05:11:37;96201.72;;;24.48;64.95
69411;BME280;56604;48.652;9.194;2023-06-22T05:14:03;96203.13;;;24.33;64.00
69411;BME280;56604;48.652;9.194;2023-06-22T05:16:28;96207.09;;;23.74;66.49
69411;BME280;56604;48.652;9.194;2023-06-22T05:18:54;96200.28;;;23.89;65.74
69411;BME280;56604;48.652;9.194;2023-06-22T05:21:25;96203.19;;;23.96;65.34
69411;BME280;56604;48.652;9.194;2023-06-22T05:23:52;96194.47;;;23.99;65.57
69411;BME280;56604;48.652;9.194;2023-06-22T05:26:21;96188.03;;;24.81;63.41
69411;BME280;56604;48.652;9.194;2023-06-22T05:28:47;96189.94;;;25.37;60.93
69411;BME280;56604;48.652;9.194;2023-06-22T05:31:14;96185.88;;;25.59;60.29
69411;BME280;56604;48.652;9.194;2023-06-22T05:33:41;96191.69;;;25.77;59.35
69411;BME280;56604;48.652;9.194;2023-06-22T05:36:06;96184.47;;;25.33;60.71
69411;BME280;56604;48.652;9.194;2023-06-22T05:38:32;96194.63;;;25.72;59.51
69411;BME280;56604;48.652;9.194;2023-06-22T05:40:58;96204.16;;;25.22;60.72
69411;BME280;56604;48.652;9.194;2023-06-22T05:43:23;96195.91;;;25.30;61.13
69411;BME280;56604;48.652;9.194;2023-06-22T05:45:48;96193.06;;;25.71;59.71
69411;BME280;56604;48.652;9.194;2023-06-22T05:48:14;96197.25;;;25.84;58.79
69411;BME280;56604;48.652;9.194;2023-06-22T05:50:39;96187.53;;;26.66;55.58
69411;BME280;56604;48.652;9.194;2023-06-22T05:53:04;96195.03;;;27.34;54.10
69411;BME280;56604;48.652;9.194;2023-06-22T05:55:32;96198.38;;;27.97;53.53
69411;BME280;56604;48.652;9.194;2023-06-22T05:57:57;96192.22;;;27.50;53.86
69411;BME280;56604;48.652;9.194;2023-06-22T06:00:22;96194.34;;;26.99;54.72
69411;BME280;56604;48.652;9.194;2023-06-22T06:02:48;96184.34;;;28.41;52.80
69411;BME280;56604;48.652;9.194;2023-06-22T06:05:14;96188.22;;;27.87;53.39
69411;BME280;56604;48.652;9.194;2023-06-22T06:07:40;96190.22;;;27.70;53.69
69411;BME280;56604;48.652;9.194;2023-06-22T06:10:06;96184.00;;;28.16;51.59
69411;BME280;56604;48.652;9.194;2023-06-22T06:12:32;96192.81;;;27.63;52.32
69411;BME280;56604;48.652;9.194;2023-06-22T06:14:57;96195.16;;;27.42;53.73
69411;BME280;56604;48.652;9.194;2023-06-22T06:17:23;96188.06;;;27.33;54.00
69411;BME280;56604;48.652;9.194;2023-06-22T06:19:48;96186.13;;;28.03;52.54
69411;BME280;56604;48.652;9.194;2023-06-22T06:22:14;96192.81;;;27.40;52.20
69411;BME280;56604;48.652;9.194;2023-06-22T06:24:39;96196.41;;;27.71;54.35
69411;BME280;56604;48.652;9.194;2023-06-22T06:27:05;96197.47;;;28.39;51.38
69411;BME280;56604;48.652;9.194;2023-06-22T06:29:31;96191.91;;;27.78;51.85
69411;BME280;56604;48.652;9.194;2023-06-22T06:31:56;96186.44;;;28.24;50.29
69411;BME280;56604;48.652;9.194;2023-06-22T06:34:22;96187.47;;;28.43;50.36
69411;BME280;56604;48.652;9.194;2023-06-22T06:36:47;96188.84;;;28.90;49.12
69411;BME280;56604;48.652;9.194;2023-06-22T06:39:12;96194.75;;;29.33;48.41
69411;BME280;56604;48.652;9.194;2023-06-22T06:41:38;96195.28;;;28.21;50.49
69411;BME280;56604;48.652;9.194;2023-06-22T06:44:03;96192.16;;;28.76;51.24
69411;BME280;56604;48.652;9.194;2023-06-22T06:46:29;96192.56;;;29.90;46.85
69411;BME280;56604;48.652;9.194;2023-06-22T06:48:55;96192.69;;;29.60;47.43
69411;BME280;56604;48.652;9.194;2023-06-22T06:51:21;96195.94;;;31.15;43.11
69411;BME280;56604;48.652;9.194;2023-06-22T06:53:46;96199.94;;;30.52;44.07
69411;BME280;56604;48.652;9.194;2023-06-22T06:56:11;96191.78;;;31.83;41.90
69411;BME280;56604;48.652;9.194;2023-06-22T06:58:38;96188.28;;;32.07;42.08
69411;BME280;56604;48.652;9.194;2023-06-22T07:01:04;96189.81;;;31.90;43.03
69411;BME280;56604;48.652;9.194;2023-06-22T07:03:29;96186.59;;;30.99;43.17
69411;BME280;56604;48.652;9.194;2023-06-22T07:05:54;96194.09;;;31.84;41.65
69411;BME280;56604;48.652;9.194;2023-06-22T07:08:20;96190.34;;;30.69;44.49
69411;BME280;56604;48.652;9.194;2023-06-22T07:10:45;96187.41;;;32.60;40.00
69411;BME280;56604;48.652;9.194;2023-06-22T07:13:10;96191.34;;;32.38;40.98
69411;BME280;56604;48.652;9.194;2023-06-22T07:15:35;96187.22;;;33.14;38.87
69411;BME280;56604;48.652;9.194;2023-06-22T07:18:01;96183.56;;;31.32;42.26
69411;BME280;56604;48.652;9.194;2023-06-22T07:20:26;96189.41;;;32.31;40.39
69411;BME280;56604;48.652;9.194;2023-06-22T07:22:52;96178.09;;;32.58;40.08
69411;BME280;56604;48.652;9.194;2023-06-22T07:25:17;96177.41;;;32.11;40.80
69411;BME280;56604;48.652;9.194;2023-06-22T07:27:45;96169.09;;;32.72;40.56
69411;BME280;56604;48.652;9.194;2023-06-22T07:30:12;96165.75;;;31.78;43.13
69411;BME280;56604;48.652;9.194;2023-06-22T07:32:37;96159.94;;;31.97;40.89
69411;BME280;56604;48.652;9.194;2023-06-22T07:35:03;96159.94;;;31.79;41.80
69411;BME280;56604;48.652;9.194;2023-06-22T07:37:29;96155.66;;;31.71;43.19
69411;BME280;56604;48.652;9.194;2023-06-22T07:39:56;96153.75;;;30.34;44.81
69411;BME280;56604;48.652;9.194;2023-06-22T07:42:25;96149.06;;;31.54;42.65
69411;BME280;56604;48.652;9.194;2023-06-22T07:44:50;96134.69;;;31.65;41.19
69411;BME280;56604;48.652;9.194;2023-06-22T07:47:16;96127.22;;;30.93;43.39
69411;BME280;56604;48.652;9.194;2023-06-22T07:49:44;96132.34;;;31.42;43.20
69411;BME280;56604;48.652;9.194;2023-06-22T07:52:09;96130.44;;;31.60;41.91
69411;BME280;56604;48.652;9.194;2023-06-22T07:54:36;96120.25;;;31.07;43.28
69411;BME280;56604;48.652;9.194;2023-06-22T07:57:01;96123.66;;;30.72;43.96
69411;BME280;56604;48.652;9.194;2023-06-22T07:59:26;96120.63;;;31.02;43.58
69411;BME280;56604;48.652;9.194;2023-06-22T08:01:52;96131.22;;;30.30;45.30
69411;BME280;56604;48.652;9.194;2023-06-22T08:04:17;96130.94;;;30.50;44.92
69411;BME280;56604;48.652;9.194;2023-06-22T08:06:42;96122.97;;;31.07;44.59
69411;BME280;56604;48.652;9.194;2023-06-22T08:09:08;96127.66;;;31.24;44.39
69411;BME280;56604;48.652;9.194;2023-06-22T08:11:34;96142.47;;;31.95;42.66
69411;BME280;56604;48.652;9.194;2023-06-22T08:13:59;96146.34;;;31.65;42.21
69411;BME280;56604;48.652;9.194;2023-06-22T08:16:24;96149.38;;;32.24;41.46
69411;BME280;56604;48.652;9.194;2023-06-22T08:18:50;96159.06;;;33.31;39.67
69411;BME280;56604;48.652;9.194;2023-06-22T08:21:15;96158.69;;;32.38;42.41
69411;BME280;56604;48.652;9.194;2023-06-22T08:23:40;96172.31;;;34.30;39.36
69411;BME280;56604;48.652;9.194;2023-06-22T08:26:06;96170.91;;;35.92;35.59
69411;BME280;56604;48.652;9.194;2023-06-22T08:28:31;96181.13;;;36.58;34.81
69411;BME280;56604;48.652;9.194;2023-06-22T08:30:57;96181.44;;;37.00;33.99
69411;BME280;56604;48.652;9.194;2023-06-22T08:33:22;96197.69;;;37.64;33.05
69411;BME280;56604;48.652;9.194;2023-06-22T08:35:53;96201.97;;;37.65;32.60
69411;BME280;56604;48.652;9.194;2023-06-22T08:38:19;96188.94;;;37.52;32.79
69411;BME280;56604;48.652;9.194;2023-06-22T08:40:45;96190.69;;;35.79;35.48
69411;BME280;56604;48.652;9.194;2023-06-22T08:43:10;96197.81;;;35.73;35.32
69411;BME280;56604;48.652;9.194;2023-06-22T08:45:36;96192.81;;;35.41;35.67
69411;BME280;56604;48.652;9.194;2023-06-22T08:48:01;96195.28;;;33.84;37.96
69411;BME280;56604;48.652;9.194;2023-06-22T08:50:27;96189.03;;;32.51;41.25
69411;BME280;56604;48.652;9.194;2023-06-22T08:52:52;96186.38;;;33.21;39.18
69411;BME280;56604;48.652;9.194;2023-06-22T08:55:17;96181.09;;;30.88;43.84
69411;BME280;56604;48.652;9.194;2023-06-22T08:57:43;96184.38;;;31.36;42.97
69411;BME280;56604;48.652;9.194;2023-06-22T09:00:09;96178.16;;;31.47;43.42
69411;BME280;56604;48.652;9.194;2023-06-22T09:02:46;96176.16;;;31.19;44.11
69411;BME280;56604;48.652;9.194;2023-06-22T09:05:11;96168.06;;;31.87;44.12
69411;BME280;56604;48.652;9.194;2023-06-22T09:07:37;96167.53;;;33.44;41.10
69411;BME280;56604;48.652;9.194;2023-06-22T09:10:02;96165.16;;;35.63;36.82
69411;BME280;56604;48.652;9.194;2023-06-22T09:12:32;96163.81;;;36.41;35.70
69411;BME280;56604;48.652;9.194;2023-06-22T09:14:58;96171.47;;;36.50;34.81
69411;BME280;56604;48.652;9.194;2023-06-22T09:17:25;96177.06;;;34.60;38.43
69411;BME280;56604;48.652;9.194;2023-06-22T09:19:51;96181.22;;;35.84;36.25
69411;BME280;56604;48.652;9.194;2023-06-22T09:22:16;96180.81;;;35.04;36.41
69411;BME280;56604;48.652;9.194;2023-06-22T09:24:41;96163.03;;;35.47;35.87
69411;BME280;56604;48.652;9.194;2023-06-22T09:27:07;96158.00;;;35.18;36.78
69411;BME280;56604;48.652;9.194;2023-06-22T09:29:32;96161.25;;;35.64;36.15
69411;BME280;56604;48.652;9.194;2023-06-22T09:31:59;96155.41;;;36.29;35.40
69411;BME280;56604;48.652;9.194;2023-06-22T09:34:25;96154.47;;;35.95;36.44
69411;BME280;56604;48.652;9.194;2023-06-22T09:36:50;96153.16;;;35.29;36.99
69411;BME280;56604;48.652;9.194;2023-06-22T09:39:17;96141.09;;;35.50;37.82
69411;BME280;56604;48.652;9.194;2023-06-22T09:41:43;96136.16;;;35.42;37.16
69411;BME280;56604;48.652;9.194;2023-06-22T09:44:08;96128.81;;;35.86;36.53
69411;BME280;56604;48.652;9.194;2023-06-22T09:46:33;96129.22;;;36.08;35.87
69411;BME280;56604;48.652;9.194;2023-06-22T09:48:59;96132.78;;;34.76;37.61
69411;BME280;56604;48.652;9.194;2023-06-22T09:51:24;96144.63;;;35.74;36.40
69411;BME280;56604;48.652;9.194;2023-06-22T09:53:50;96148.56;;;33.82;38.92
69411;BME280;56604;48.652;9.194;2023-06-22T09:56:15;96148.56;;;33.82;38.96
69411;BME280;56604;48.652;9.194;2023-06-22T09:58:45;96134.53;;;33.31;40.50
69411;BME280;56604;48.652;9.194;2023-06-22T10:01:11;96133.44;;;34.19;38.18
69411;BME280;56604;48.652;9.194;2023-06-22T10:03:37;96124.19;;;33.61;39.32
69411;BME280;56604;48.652;9.194;2023-06-22T10:06:02;96114.03;;;33.16;40.38
69411;BME280;56604;48.652;9.194;2023-06-22T10:08:28;96113.41;;;33.91;38.87
69411;BME280;56604;48.652;9.194;2023-06-22T10:10:53;96114.94;;;32.88;41.25
69411;BME280;56604;48.652;9.194;2023-06-22T10:13:19;96100.88;;;31.08;44.64
69411;BME280;56604;48.652;9.194;2023-06-22T10:15:44;96093.50;;;31.80;44.63
69411;BME280;56604;48.652;9.194;2023-06-22T10:18:15;96101.69;;;31.55;46.60
69411;BME280;56604;48.652;9.194;2023-06-22T10:20:41;96093.41;;;32.27;42.89
69411;BME280;56604;48.652;9.194;2023-06-22T10:23:06;96096.16;;;32.13;42.86
69411;BME280;56604;48.652;9.194;2023-06-22T10:25:31;96091.16;;;31.90;43.56
69411;BME280;56604;48.652;9.194;2023-06-22T10:27:57;96082.63;;;31.95;43.66
69411;BME280;56604;48.652;9.194;2023-06-22T10:30:22;96078.63;;;32.28;43.46
69411;BME280;56604;48.652;9.194;2023-06-22T10:32:48;96080.28;;;31.04;45.27
69411;BME280;56604;48.652;9.194;2023-06-22T10:35:13;96078.38;;;31.65;43.82
69411;BME280;56604;48.652;9.194;2023-06-22T10:37:44;96081.47;;;31.10;45.36
69411;BME280;56604;48.652;9.194;2023-06-22T10:40:11;96075.66;;;31.72;44.18
69411;BME280;56604;48.652;9.194;2023-06-22T10:42:37;96074.88;;;31.29;44.20
69411;BME280;56604;48.652;9.194;2023-06-22T10:45:02;96071.75;;;31.02;45.35
69411;BME280;56604;48.652;9.194;2023-06-22T10:47:28;96064.72;;;32.01;43.41
69411;BME280;56604;48.652;9.194;2023-06-22T10:49:53;96067.09;;;31.70;43.92
69411;BME280;56604;48.652;9.194;2023-06-22T10:52:18;96061.97;;;32.15;43.13
69411;BME280;56604;48.652;9.194;2023-06-22T10:54:43;96065.41;;;32.26;43.13
69411;BME280;56604;48.652;9.194;2023-06-22T10:57:09;96070.25;;;31.51;45.68
69411;BME280;56604;48.652;9.194;2023-06-22T10:59:34;96058.56;;;31.68;44.50
69411;BME280;56604;48.652;9.194;2023-06-22T11:02:00;96061.63;;;31.88;45.22
69411;BME280;56604;48.652;9.194;2023-06-22T11:04:25;96063.63;;;31.66;44.71
69411;BME280;56604;48.652;9.194;2023-06-22T11:06:51;96070.97;;;31.33;44.30
69411;BME280;56604;48.652;9.194;2023-06-22T11:09:17;96071.78;;;31.05;46.25
69411;BME280;56604;48.652;9.194;2023-06-22T11:11:46;96061.69;;;31.42;44.95
69411;BME280;56604;48.652;9.194;2023-06-22T11:14:12;96073.97;;;32.21;43.59
69411;BME280;56604;48.652;9.194;2023-06-22T11:16:37;96078.59;;;32.46;43.03
69411;BME280;56604;48.652;9.194;2023-06-22T11:19:04;96082.59;;;31.88;44.43
69411;BME280;56604;48.652;9.194;2023-06-22T11:21:30;96074.50;;;31.66;44.48
69411;BME280;56604;48.652;9.194;2023-06-22T11:23:56;96072.53;;;31.88;43.93
69411;BME280;56604;48.652;9.194;2023-06-22T11:26:21;96074.09;;;31.64;44.58
69411;BME280;56604;48.652;9.194;2023-06-22T11:28:46;96069.44;;;31.32;45.61
69411;BME280;56604;48.652;9.194;2023-06-22T11:31:12;96074.84;;;31.97;44.22
69411;BME280;56604;48.652;9.194;2023-06-22T11:33:37;96061.28;;;31.68;44.68
69411;BME280;56604;48.652;9.194;2023-06-22T11:36:03;96053.41;;;32.20;42.71
69411;BME280;56604;48.652;9.194;2023-06-22T11:38:28;96049.19;;;31.98;42.43
69411;BME280;56604;48.652;9.194;2023-06-22T11:40:54;96040.72;;;31.60;43.46
69411;BME280;56604;48.652;9.194;2023-06-22T11:43:19;96046.53;;;31.05;44.64
69411;BME280;56604;48.652;9.194;2023-06-22T11:45:44;96051.97;;;31.26;43.83
69411;BME280;56604;48.652;9.194;2023-06-22T11:48:10;96056.22;;;30.99;44.82
69411;BME280;56604;48.652;9.194;2023-06-22T11:50:35;96065.56;;;31.08;44.96
69411;BME280;56604;48.652;9.194;2023-06-22T11:53:02;96064.03;;;31.25;44.18
69411;BME280;56604;48.652;9.194;2023-06-22T11:55:28;96078.00;;;31.34;44.58
69411;BME280;56604;48.652;9.194;2023-06-22T11:57:57;96078.75;;;31.24;44.52
69411;BME280;56604;48.652;9.194;2023-06-22T12:00:25;96059.38;;;31.54;43.64
69411;BME280;56604;48.652;9.194;2023-06-22T12:02:51;96053.19;;;32.70;40.17
69411;BME280;56604;48.652;9.194;2023-06-22T12:05:21;96047.34;;;32.68;41.46
69411;BME280;56604;48.652;9.194;2023-06-22T12:07:47;96054.25;;;32.84;41.51
69411;BME280;56604;48.652;9.194;2023-06-22T12:10:12;96055.31;;;33.49;40.82
69411;BME280;56604;48.652;9.194;2023-06-22T12:12:38;96055.44;;;33.35;40.35
69411;BME280;56604;48.652;9.194;2023-06-22T12:15:03;96053.75;;;33.55;40.73
69411;BME280;56604;48.652;9.194;2023-06-22T12:17:32;96058.47;;;32.99;41.17
69411;BME280;56604;48.652;9.194;2023-06-22T12:19:58;96055.41;;;31.84;41.35
69411;BME280;56604;48.652;9.194;2023-06-22T12:22:23;96053.69;;;32.40;41.47
69411;BME280;56604;48.652;9.194;2023-06-22T12:24:49;96044.44;;;32.97;40.72
69411;BME280;56604;48.652;9.194;2023-06-22T12:27:15;96058.78;;;33.08;41.65
69411;BME280;56604;48.652;9.194;2023-06-22T12:29:41;96065.78;;;33.13;40.85
69411;BME280;56604;48.652;9.194;2023-06-22T12:32:07;96076.75;;;32.14;41.48
69411;BME280;56604;48.652;9.194;2023-06-22T12:34:32;96081.88;;;31.76;43.71
69411;BME280;56604;48.652;9.194;2023-06-22T12:36:57;96100.91;;;31.91;43.58
69411;BME280;56604;48.652;9.194;2023-06-22T12:39:23;96104.34;;;32.09;43.14
69411;BME280;56604;48.652;9.194;2023-06-22T12:41:48;96102.75;;;32.26;43.83
69411;BME280;56604;48.652;9.194;2023-06-22T12:44:13;96097.38;;;32.08;42.98
69411;BME280;56604;48.652;9.194;2023-06-22T12:46:39;96098.94;;;31.95;43.64
69411;BME280;56604;48.652;9.194;2023-06-22T12:49:04;96102.75;;;32.19;43.92
69411;BME280;56604;48.652;9.194;2023-06-22T12:51:30;96108.94;;;32.26;43.94
69411;BME280;56604;48.652;9.194;2023-06-22T12:53:56;96099.56;;;32.38;44.07
69411;BME280;56604;48.652;9.194;2023-06-22T12:56:21;96090.91;;;32.68;43.60
69411;BME280;56604;48.652;9.194;2023-06-22T12:58:47;96094.09;;;32.53;43.08
69411;BME280;56604;48.652;9.194;2023-06-22T13:01:12;96087.97;;;32.31;43.14
69411;BME280;56604;48.652;9.194;2023-06-22T13:03:37;96084.91;;;32.14;43.26